Time;durP1;ratioP1;P1;durP2;ratioP2;P2;SDS_P1;SDS_P2;PMS_P1;PMS_P2;Temp;Humidity;BMP_temperature;BMP_pressure;BME280_temperature;BME280_humidity;BME280_pressure;Samples;Min_cycle;Max_cycle;Signal;HPM_P1;HPM_P2
2023/09/19 00:00:49;;;;;;;;;;;;;;;22.49;76.28;98918.06;5075052;28;20040;-69
2023/09/19 00:03:18;;;;;;;1.25;1.15;;;;;;;22.38;77.20;98919.66;5074196;28;19920;-69
2023/09/19 00:05:48;;;;;;;2.03;1.42;;;;;;;22.22;78.61;98917.13;5074566;28;20044;-70
2023/09/19 00:08:24;;;;;;;3.60;2.17;;;;;;;22.14;79.25;98919.38;5074500;28;20131;-69
2023/09/19 00:10:58;;;;;;;2.53;1.75;;;;;;;21.93;80.15;98918.06;5074151;28;20052;-68
2023/09/19 00:13:28;;;;;;;1.27;1.05;;;;;;;21.93;80.60;98911.06;5074069;28;20135;-69
2023/09/19 00:15:58;;;;;;;2.40;1.58;;;;;;;21.81;81.37;98903.16;5074334;28;20052;-68
2023/09/19 00:18:32;;;;;;;4.28;2.55;;;;;;;21.74;82.15;98909.63;5074029;28;20040;-69
2023/09/19 00:21:02;;;;;;;1.02;0.98;;;;;;;21.77;82.66;98904.22;5073982;28;20044;-69
2023/09/19 00:23:31;;;;;;;1.65;1.52;;;;;;;21.68;83.01;98899.59;5074093;28;20050;-68
2023/09/19 00:26:01;;;;;;;2.42;1.63;;;;;;;21.60;83.30;98896.59;5074112;28;20040;-68
2023/09/19 00:28:31;;;;;;;2.45;2.05;;;;;;;21.52;84.17;98904.00;5073917;28;20102;-68
2023/09/19 00:31:01;;;;;;;2.10;1.67;;;;;;;21.45;84.42;98898.31;5106505;28;20049;-68
2023/09/19 00:33:34;;;;;;;1.85;1.58;;;;;;;21.48;85.07;98897.28;5106381;28;20044;-68
2023/09/19 00:36:05;;;;;;;2.08;1.33;;;;;;;21.46;85.72;98899.16;5074133;28;20041;-68
2023/09/19 00:38:34;;;;;;;1.80;1.63;;;;;;;21.43;86.16;98907.94;5073563;28;20044;-69
2023/09/19 00:41:05;;;;;;;2.17;1.45;;;;;;;21.46;86.39;98904.34;5073852;28;20131;-68
2023/09/19 00:43:35;;;;;;;2.55;1.30;;;;;;;21.44;86.84;98906.19;5106696;28;20051;-68
2023/09/19 00:46:06;;;;;;;3.42;1.98;;;;;;;21.38;86.82;98903.03;5073954;28;20045;-68
2023/09/19 00:48:43;;;;;;;2.72;2.35;;;;;;;21.35;87.43;98905.78;5073646;28;20053;-68
2023/09/19 00:51:17;;;;;;;3.28;2.13;;;;;;;21.42;87.74;98908.88;5106330;28;20078;-68
2023/09/19 00:53:48;;;;;;;4.05;2.80;;;;;;;21.38;87.81;98906.56;5106091;28;20044;-69
2023/09/19 00:56:18;;;;;;;3.95;1.80;;;;;;;21.38;88.36;98903.03;5073751;28;20052;-68
2023/09/19 00:58:49;;;;;;;3.53;1.92;;;;;;;21.48;88.41;98892.94;5106035;28;20052;-68
2023/09/19 01:01:19;;;;;;;1.88;1.45;;;;;;;21.48;88.06;98892.94;5073491;28;20044;-69
2023/09/19 01:03:48;;;;;;;1.95;1.15;;;;;;;21.45;88.48;98894.91;5073373;28;20051;-69
2023/09/19 01:06:17;;;;;;;1.08;0.98;;;;;;;21.46;88.64;98893.94;5073344;28;20056;-69
2023/09/19 01:08:47;;;;;;;2.35;1.75;;;;;;;21.48;88.66;98895.53;5073699;28;20056;-69
2023/09/19 01:11:27;;;;;;;2.50;1.63;;;;;;;21.46;88.61;98894.78;5073665;28;20377;-69
2023/09/19 01:14:07;;;;;;;3.60;2.65;;;;;;;21.39;88.83;98898.66;5073393;28;20075;-69
2023/09/19 01:16:44;;;;;;;0.88;0.88;;;;;;;21.35;89.19;98892.78;5106310;28;20151;-69
2023/09/19 01:19:40;;;;;;;2.13;1.92;;;;;;;21.34;89.43;98890.31;5073559;28;20123;-69
2023/09/19 01:22:19;;;;;;;1.13;0.93;;;;;;;21.35;89.74;98895.41;5073605;28;20130;-69
2023/09/19 01:25:17;;;;;;;1.73;1.50;;;;;;;21.36;89.90;98894.47;5074146;28;20499;-68
2023/09/19 01:28:13;;;;;;;1.40;1.30;;;;;;;21.29;89.99;98900.94;5073266;28;20040;-68
2023/09/19 01:30:45;;;;;;;1.40;1.30;;;;;;;21.28;90.22;98901.84;5073563;28;20492;-69
2023/09/19 01:33:14;;;;;;;3.80;2.40;;;;;;;21.29;89.98;98902.69;5073178;28;20492;-68
2023/09/19 01:35:43;;;;;;;5.13;1.90;;;;;;;21.19;90.30;98899.78;5072166;28;20048;-68
2023/09/19 01:38:14;;;;;;;3.03;1.90;;;;;;;21.17;90.26;98904.22;5105485;28;20065;-68
2023/09/19 01:40:49;;;;;;;2.40;1.30;;;;;;;21.17;90.18;98899.03;5073172;28;20080;-68
2023/09/19 01:43:27;;;;;;;4.13;2.05;;;;;;;21.13;90.19;98892.38;5073326;28;20492;-68
2023/09/19 01:46:05;;;;;;;1.60;1.50;;;;;;;21.11;90.24;98902.00;5073524;28;20052;-68
2023/09/19 01:48:40;;;;;;;2.65;2.28;;;;;;;21.10;90.20;98902.06;5072273;28;20480;-68
2023/09/19 01:51:11;;;;;;;2.40;1.60;;;;;;;21.09;89.97;98903.81;5073015;28;20530;-68
2023/09/19 01:53:46;;;;;;;1.13;1.02;;;;;;;21.06;89.93;98909.19;5072908;28;20044;-68
2023/09/19 01:56:23;;;;;;;1.55;1.38;;;;;;;21.01;90.21;98913.78;5071697;28;20102;-68
2023/09/19 01:58:57;;;;;;;3.13;1.85;;;;;;;21.05;90.16;98910.09;5072929;28;20048;-69
2023/09/19 02:01:29;;;;;;;3.15;2.05;;;;;;;21.08;90.16;98902.16;5105454;28;20554;-68
2023/09/19 02:03:59;;;;;;;1.20;1.05;;;;;;;21.07;90.35;98902.22;5072823;28;20072;-68
2023/09/19 02:06:29;;;;;;;1.55;1.45;;;;;;;21.05;90.44;98904.91;5071870;28;20072;-68
2023/09/19 02:08:59;;;;;;;2.42;1.73;;;;;;;21.03;90.35;98901.53;5072832;28;20053;-68
2023/09/19 02:11:28;;;;;;;2.53;1.90;;;;;;;21.07;90.56;98903.06;5106852;28;20044;-68
2023/09/19 02:13:57;;;;;;;2.97;1.52;;;;;;;21.10;90.68;98908.09;5075515;28;20043;-68
2023/09/19 02:16:28;;;;;;;1.20;0.93;;;;;;;21.11;90.36;98909.78;5076434;28;20135;-69
2023/09/19 02:18:57;;;;;;;1.90;1.52;;;;;;;21.10;90.26;98908.09;5075473;28;20540;-70
2023/09/19 02:21:29;;;;;;;1.63;1.52;;;;;;;21.07;90.37;98899.63;5076273;28;20093;-70
2023/09/19 02:23:58;;;;;;;2.10;1.83;;;;;;;21.05;90.52;98893.69;5108825;28;20041;-69
2023/09/19 02:26:27;;;;;;;7.07;2.08;;;;;;;21.00;90.62;98893.91;5076273;28;20055;-69
2023/09/19 02:28:56;;;;;;;1.52;1.42;;;;;;;20.98;90.76;98893.19;5108729;28;20098;-68
2023/09/19 02:31:25;;;;;;;1.75;1.48;;;;;;;20.97;90.51;98891.50;5076170;28;20512;-70
2023/09/19 02:33:56;;;;;;;2.97;2.13;;;;;;;20.92;90.76;98903.06;5076336;28;20052;-68
2023/09/19 02:36:26;;;;;;;3.33;1.55;;;;;;;20.88;91.14;98897.19;5076111;28;20044;-68
2023/09/19 02:38:56;;;;;;;1.33;1.23;;;;;;;20.84;91.19;98906.06;5075927;28;20040;-69
2023/09/19 02:41:29;;;;;;;1.08;0.98;;;;;;;20.81;91.06;98906.22;5076008;28;20098;-68
2023/09/19 02:43:59;;;;;;;1.20;1.02;;;;;;;20.81;90.92;98906.22;5076125;28;20045;-68
2023/09/19 02:46:29;;;;;;;0.88;0.88;;;;;;;20.78;90.77;98906.38;5075830;28;20045;-69
2023/09/19 02:48:59;;;;;;;1.50;1.40;;;;;;;20.78;90.88;98900.41;5074540;28;20036;-68
2023/09/19 02:51:28;;;;;;;1.10;1.00;;;;;;;20.78;90.62;98893.41;5108507;28;20594;-68
2023/09/19 02:53:57;;;;;;;1.77;1.60;;;;;;;20.75;90.52;98893.63;5075759;28;20102;-67
2023/09/19 02:56:26;;;;;;;1.15;1.02;;;;;;;20.69;90.47;98899.13;5108735;28;20033;-68
2023/09/19 02:58:55;;;;;;;8.30;2.58;;;;;;;20.62;90.43;98901.22;5075560;28;20127;-68
2023/09/19 03:01:24;;;;;;;1.67;1.55;;;;;;;20.59;90.68;98905.72;5074471;28;20122;-67
2023/09/19 03:03:53;;;;;;;2.08;1.25;;;;;;;20.58;90.42;98904.06;5075495;28;20044;-69
2023/09/19 03:06:24;;;;;;;1.50;1.23;;;;;;;20.62;90.33;98903.81;5075978;28;20403;-67
2023/09/19 03:08:52;;;;;;;1.08;1.00;;;;;;;20.62;90.19;98903.81;5075658;28;20500;-68
2023/09/19 03:11:23;;;;;;;1.30;1.20;;;;;;;20.64;90.28;98906.31;5074243;28;20090;-68
2023/09/19 03:13:56;;;;;;;2.63;1.58;;;;;;;20.64;90.28;98903.72;5075662;28;20105;-69
2023/09/19 03:16:26;;;;;;;1.13;1.02;;;;;;;20.66;90.52;98907.06;5091210;28;20147;-67
2023/09/19 03:18:59;;;;;;;0.73;0.73;;;;;;;20.69;90.36;98907.75;5075247;28;20056;-68
2023/09/19 03:21:33;;;;;;;0.95;0.88;;;;;;;20.71;90.15;98910.25;5075206;28;20127;-71
2023/09/19 03:24:02;;;;;;;2.78;2.13;;;;;;;20.73;90.00;98911.03;5073436;28;20121;-69
2023/09/19 03:26:31;;;;;;;0.70;0.70;;;;;;;20.66;89.80;98907.06;5073765;28;20048;-70
2023/09/19 03:28:59;;;;;;;1.05;0.82;;;;;;;20.53;89.52;98914.69;5107985;28;20064;-69
2023/09/19 03:31:29;;;;;;;0.68;0.68;;;;;;;20.49;89.62;98917.53;5074890;28;20132;-69
2023/09/19 03:33:59;;;;;;;0.98;0.88;;;;;;;20.47;89.71;98916.75;5108102;28;20072;-68
2023/09/19 03:36:30;;;;;;;0.43;0.43;;;;;;;20.41;89.72;98914.50;5074861;28;20044;-69
2023/09/19 03:39:01;;;;;;;1.05;1.00;;;;;;;20.32;90.09;98917.56;5107359;28;20059;-68
2023/09/19 03:41:30;;;;;;;1.67;1.23;;;;;;;20.27;90.01;98909.19;5107402;28;20562;-69
2023/09/19 03:43:59;;;;;;;1.60;1.25;;;;;;;20.26;90.67;98912.69;5073775;28;20553;-69
2023/09/19 03:46:28;;;;;;;0.70;0.70;;;;;;;20.26;90.82;98916.13;5073631;28;20131;-69
2023/09/19 03:48:58;;;;;;;0.60;0.60;;;;;;;20.26;90.85;98923.06;5074609;28;20095;-68
2023/09/19 03:51:27;;;;;;;0.63;0.63;;;;;;;20.22;90.97;98916.34;5073331;28;20132;-68
2023/09/19 03:53:56;;;;;;;0.98;0.98;;;;;;;20.18;90.93;98912.25;5074563;28;20087;-69
2023/09/19 03:56:28;;;;;;;0.93;0.80;;;;;;;20.19;91.00;98913.91;5107362;28;20052;-69
2023/09/19 03:58:57;;;;;;;1.05;0.98;;;;;;;20.19;91.24;98921.66;5073298;28;20040;-68
2023/09/19 04:01:27;;;;;;;1.58;1.48;;;;;;;20.19;91.20;98924.25;5073064;28;20046;-68
2023/09/19 04:03:57;;;;;;;0.88;0.85;;;;;;;20.19;91.28;98929.44;5073088;28;20049;-68
2023/09/19 04:06:27;;;;;;;0.68;0.60;;;;;;;20.11;91.41;98932.41;5073110;28;20033;-68
2023/09/19 04:08:57;;;;;;;0.60;0.57;;;;;;;20.06;91.34;98932.66;5074285;28;20048;-68
2023/09/19 04:11:27;;;;;;;0.50;0.50;;;;;;;19.94;91.34;98930.69;5074108;28;20072;-68
2023/09/19 04:13:57;;;;;;;0.50;0.50;;;;;;;19.92;91.52;98929.09;5106792;28;20097;-68
2023/09/19 04:16:26;;;;;;;0.68;0.68;;;;;;;19.88;91.74;98933.59;5072895;28;20048;-68
2023/09/19 04:18:57;;;;;;;0.52;0.50;;;;;;;19.83;91.72;98942.50;5074018;28;20044;-69
2023/09/19 04:21:26;;;;;;;2.67;1.33;;;;;;;19.73;91.62;98949.91;5106512;28;20047;-69
2023/09/19 04:23:55;;;;;;;0.40;0.40;;;;;;;19.56;91.69;98956.81;5072808;28;20132;-68
2023/09/19 04:26:26;;;;;;;0.50;0.50;;;;;;;19.54;92.10;98956.91;5074111;28;20052;-69
2023/09/19 04:28:57;;;;;;;0.47;0.47;;;;;;;19.56;92.14;98962.84;5072926;28;20051;-69
2023/09/19 04:31:27;;;;;;;0.40;0.40;;;;;;;19.63;92.32;98969.38;5073948;28;20048;-69
2023/09/19 04:33:56;;;;;;;0.40;0.40;;;;;;;19.67;92.02;98965.75;5073541;28;20105;-69
2023/09/19 04:36:25;;;;;;;0.40;0.40;;;;;;;19.65;91.86;98972.72;5074148;28;20041;-69
2023/09/19 04:39:07;;;;;;;0.40;0.40;;;;;;;19.65;92.00;98977.91;5073473;28;20072;-68
2023/09/19 04:41:36;;;;;;;1.33;0.82;;;;;;;19.68;91.71;98980.38;5073738;28;20127;-68
2023/09/19 04:44:07;;;;;;;0.60;0.60;;;;;;;19.68;91.47;98990.72;5073598;28;20037;-69
2023/09/19 04:46:36;;;;;;;0.55;0.55;;;;;;;19.68;91.56;98993.31;5073648;28;20068;-68
2023/09/19 04:49:05;;;;;;;0.40;0.40;;;;;;;19.73;91.35;99003.44;5073695;28;20047;-69
2023/09/19 04:51:36;;;;;;;1.00;0.60;;;;;;;19.64;91.14;99012.50;5073638;28;20033;-67
2023/09/19 04:54:06;;;;;;;0.40;0.40;;;;;;;19.68;91.17;99019.19;5073792;28;20049;-68
2023/09/19 04:56:35;;;;;;;1.33;0.60;;;;;;;19.69;90.93;99020.88;5073517;28;20045;-69
2023/09/19 04:59:04;;;;;;;0.40;0.40;;;;;;;19.59;90.76;99021.41;5073626;28;20044;-68
2023/09/19 05:01:35;;;;;;;0.50;0.50;;;;;;;19.51;90.60;99032.09;5073460;28;20582;-69
2023/09/19 05:04:05;;;;;;;0.40;0.40;;;;;;;19.39;90.20;99048.22;5073658;28;20051;-69
2023/09/19 05:06:35;;;;;;;0.40;0.40;;;;;;;19.25;89.68;99053.16;5073918;28;20464;-68
2023/09/19 05:09:05;;;;;;;0.40;0.40;;;;;;;19.17;89.42;99063.84;5073401;28;20048;-69
2023/09/19 05:11:34;;;;;;;0.40;0.40;;;;;;;19.12;88.96;99058.03;5073677;28;20143;-67
2023/09/19 05:14:03;;;;;;;0.40;0.40;;;;;;;19.12;88.58;99065.00;5073243;28;20052;-68
2023/09/19 05:16:33;;;;;;;0.50;0.50;;;;;;;19.11;88.30;99068.47;5073262;28;20048;-69
2023/09/19 05:19:04;;;;;;;0.68;0.68;;;;;;;19.11;88.16;99073.66;5073288;28;20059;-68
2023/09/19 05:21:33;;;;;;;0.50;0.50;;;;;;;19.07;88.04;99083.31;5073254;28;20496;-68
2023/09/19 05:24:02;;;;;;;0.40;0.40;;;;;;;18.99;87.90;99079.38;5072228;28;20048;-68
2023/09/19 05:26:31;;;;;;;0.40;0.40;;;;;;;18.88;88.23;99086.78;5073121;28;20090;-68
2023/09/19 05:29:01;;;;;;;0.40;0.40;;;;;;;18.81;88.20;99085.34;5073496;28;20044;-68
2023/09/19 05:31:30;;;;;;;;;;;;;;;18.82;88.29;99097.38;5073549;28;20131;-68
2023/09/19 05:34:00;;;;;;;;;;;;;;;18.90;88.27;99095.28;5073872;28;19927;-69
2023/09/19 05:36:31;;;;;;;0.45;0.45;;;;;;;18.97;88.27;99104.47;5073240;28;19948;-69
2023/09/19 05:39:00;;;;;;;0.45;0.45;;;;;;;18.93;88.13;99116.69;5072896;28;20053;-69
2023/09/19 05:41:29;;;;;;;0.50;0.50;;;;;;;18.99;87.99;99115.56;5073315;28;20492;-69
2023/09/19 05:43:59;;;;;;;0.70;0.70;;;;;;;18.99;88.16;99121.59;5073302;28;20040;-69
2023/09/19 05:46:31;;;;;;;0.65;0.65;;;;;;;19.04;88.19;99123.97;5107199;28;20040;-69
2023/09/19 05:49:00;;;;;;;0.68;0.68;;;;;;;19.03;88.22;99123.13;5077543;28;20044;-69
2023/09/19 05:51:31;;;;;;;0.40;0.40;;;;;;;18.98;88.08;99129.44;5077132;28;20193;-68
2023/09/19 05:53:59;;;;;;;0.45;0.45;;;;;;;18.96;88.21;99120.88;5076853;28;20044;-69
2023/09/19 05:56:28;;;;;;;0.40;0.40;;;;;;;18.90;88.13;99126.31;5076493;28;20041;-69
2023/09/19 05:58:57;;;;;;;0.35;0.35;;;;;;;18.92;88.26;99127.09;5076483;28;20803;-69
2023/09/19 06:01:26;;;;;;;0.50;0.50;;;;;;;18.93;88.45;99131.38;5076668;28;20094;-68
2023/09/19 06:03:55;;;;;;;;;;;;;;;18.95;88.37;99134.72;5074293;28;20040;-69
2023/09/19 06:06:24;;;;;;;0.75;0.75;;;;;;;18.98;88.57;99135.41;5076057;28;19927;-68
2023/09/19 06:08:54;;;;;;;0.37;0.37;;;;;;;18.98;88.59;99140.59;5076754;28;20575;-68
2023/09/19 06:11:26;;;;;;;0.47;0.47;;;;;;;19.05;88.73;99136.84;5076470;28;20281;-69
2023/09/19 06:13:55;;;;;;;0.40;0.40;;;;;;;19.13;88.79;99133.91;5108477;28;20139;-69
2023/09/19 06:16:25;;;;;;;0.40;0.40;;;;;;;19.10;88.85;99131.50;5075338;28;20048;-69
2023/09/19 06:18:55;;;;;;;0.40;0.40;;;;;;;19.12;88.83;99129.66;5076326;28;20053;-69
2023/09/19 06:21:24;;;;;;;;;;;;;;;19.11;88.81;99133.16;5076828;28;20040;-69
2023/09/19 06:23:54;;;;;;;0.57;0.57;;;;;;;19.10;88.94;99134.06;5075727;28;20383;-69
2023/09/19 06:26:23;;;;;;;0.40;0.40;;;;;;;19.11;89.02;99131.41;5075453;28;20052;-69
2023/09/19 06:28:52;;;;;;;0.93;0.93;;;;;;;19.13;89.24;99133.91;5076702;28;20032;-69
2023/09/19 06:31:22;;;;;;;0.40;0.40;;;;;;;19.19;89.13;99129.34;5076051;28;20496;-69
2023/09/19 06:33:51;;;;;;;0.77;0.70;;;;;;;19.17;89.07;99146.66;5075662;28;20058;-69
2023/09/19 06:36:20;;;;;;;0.40;0.40;;;;;;;19.13;89.36;99155.47;5074213;28;20045;-69
2023/09/19 06:38:51;;;;;;;0.77;0.55;;;;;;;19.11;89.58;99156.44;5071661;28;20523;-69
2023/09/19 06:41:24;;;;;;;0.40;0.40;;;;;;;19.14;89.66;99157.16;5075220;28;20052;-69
2023/09/19 06:43:54;;;;;;;1.02;0.95;;;;;;;19.16;89.80;99162.25;5075944;28;20518;-68
2023/09/19 06:46:23;;;;;;;0.40;0.40;;;;;;;19.14;89.91;99157.16;5075750;28;20132;-68
2023/09/19 06:48:53;;;;;;;0.60;0.60;;;;;;;19.12;89.84;99163.28;5077793;28;20090;-68
2023/09/19 06:51:21;;;;;;;0.50;0.50;;;;;;;19.06;89.97;99173.91;5075779;28;20047;-69
2023/09/19 06:53:51;;;;;;;0.40;0.40;;;;;;;19.17;90.33;99171.69;5075958;28;20041;-68
2023/09/19 06:56:23;;;;;;;0.60;0.60;;;;;;;19.24;90.05;99173.13;5075690;28;20065;-68
2023/09/19 06:58:52;;;;;;;0.68;0.57;;;;;;;19.32;89.91;99183.94;5074825;28;20115;-68
2023/09/19 07:01:21;;;;;;;1.35;0.95;;;;;;;19.32;89.72;99189.97;5075677;28;20119;-68
2023/09/19 07:03:50;;;;;;;0.50;0.50;;;;;;;19.31;89.74;99198.66;5075521;28;20037;-69
2023/09/19 07:06:19;;;;;;;4.73;2.13;;;;;;;19.37;89.62;99200.16;5075998;28;20388;-68
2023/09/19 07:08:50;;;;;;;0.50;0.50;;;;;;;19.39;89.35;99198.31;5074237;28;20289;-68
2023/09/19 07:11:19;;;;;;;0.40;0.40;;;;;;;19.43;89.29;99199.91;5075914;28;20044;-68
2023/09/19 07:13:50;;;;;;;;;;;;;;;19.50;89.64;99203.03;5076053;28;20411;-68
2023/09/19 07:16:27;;;;;;;0.45;0.45;;;;;;;19.50;89.51;99203.88;5075599;28;19956;-67
2023/09/19 07:18:57;;;;;;;0.40;0.40;;;;;;;19.57;89.65;99207.88;5074786;28;20047;-68
2023/09/19 07:21:26;;;;;;;0.38;0.38;;;;;;;19.64;89.62;99209.28;5075163;28;20044;-68
2023/09/19 07:23:54;;;;;;;0.40;0.40;;;;;;;19.71;89.60;99215.88;5075063;28;20041;-68
2023/09/19 07:26:23;;;;;;;0.30;0.30;;;;;;;19.72;89.67;99217.56;5074802;28;20497;-68
2023/09/19 07:28:54;;;;;;;0.43;0.43;;;;;;;19.78;89.51;99217.28;5074959;28;20040;-68
2023/09/19 07:31:23;;;;;;;0.70;0.68;;;;;;;19.78;89.43;99217.28;5074970;28;20045;-68
2023/09/19 07:33:52;;;;;;;0.30;0.30;;;;;;;19.84;89.58;99216.97;5075167;28;20045;-68
2023/09/19 07:36:24;;;;;;;0.40;0.40;;;;;;;19.89;89.23;99209.03;5073923;28;20044;-68
2023/09/19 07:38:53;;;;;;;0.30;0.30;;;;;;;19.92;89.03;99214.03;5074334;28;20051;-68
2023/09/19 07:41:21;;;;;;;0.70;0.70;;;;;;;20.00;89.14;99212.78;5075089;28;20047;-68
2023/09/19 07:43:50;;;;;;;3.30;1.10;;;;;;;20.03;88.81;99207.44;5075055;28;20277;-68
2023/09/19 07:46:22;;;;;;;0.38;0.38;;;;;;;20.02;88.94;99205.78;5073894;28;20123;-68
2023/09/19 07:48:51;;;;;;;0.30;0.30;;;;;;;20.06;88.84;99212.50;5074676;28;20135;-67
2023/09/19 07:51:20;;;;;;;0.40;0.40;;;;;;;20.07;88.93;99208.16;5074704;28;20044;-67
2023/09/19 07:53:49;;;;;;;0.60;0.60;;;;;;;20.13;89.13;99207.03;5074638;28;20132;-67
2023/09/19 07:56:20;;;;;;;0.98;0.98;;;;;;;20.04;89.16;99214.31;5073880;28;20319;-68
2023/09/19 07:58:49;;;;;;;0.80;0.80;;;;;;;20.03;89.44;99228.16;5073659;28;20063;-67
2023/09/19 08:01:17;;;;;;;0.50;0.50;;;;;;;19.97;89.59;99233.66;5074404;28;20032;-67
2023/09/19 08:03:49;;;;;;;0.40;0.40;;;;;;;20.06;89.68;99237.56;5074638;28;20076;-67
2023/09/19 08:06:18;;;;;;;0.40;0.40;;;;;;;20.12;89.70;99246.81;5073777;28;20094;-67
2023/09/19 08:08:49;;;;;;;;;;;;;;;20.15;89.31;99241.50;5073986;28;20051;-67
2023/09/19 08:11:21;;;;;;;0.40;0.40;;;;;;;20.20;89.15;99240.38;5072467;28;19978;-67
2023/09/19 08:13:51;;;;;;;8.52;4.10;;;;;;;20.29;89.06;99244.31;5071786;28;20046;-67
2023/09/19 08:16:22;;;;;;;1.75;1.20;;;;;;;20.34;88.90;99257.91;5073638;28;20056;-66
2023/09/19 08:18:55;;;;;;;0.40;0.40;;;;;;;20.35;88.73;99255.22;5074391;28;20059;-67
2023/09/19 08:21:26;;;;;;;0.40;0.40;;;;;;;20.30;88.79;99258.97;5075443;28;20044;-67
2023/09/19 08:23:55;;;;;;;0.90;0.80;;;;;;;20.27;88.24;99262.53;5074248;28;20400;-67
2023/09/19 08:26:25;;;;;;;1.25;1.13;;;;;;;20.24;88.68;99264.41;5075056;28;20048;-68
2023/09/19 08:28:55;;;;;;;0.40;0.40;;;;;;;20.20;88.95;99271.47;5073791;28;20052;-67
2023/09/19 08:31:25;;;;;;;0.40;0.40;;;;;;;20.26;89.20;99265.19;5077401;28;20475;-67
2023/09/19 08:33:56;;;;;;;0.40;0.40;;;;;;;20.38;89.39;99269.78;5074380;28;20055;-67
2023/09/19 08:36:25;;;;;;;0.80;0.80;;;;;;;20.52;89.54;99267.38;5074147;28;20131;-67
2023/09/19 08:38:53;;;;;;;0.80;0.80;;;;;;;20.50;89.34;99272.66;5073546;28;20090;-67
2023/09/19 08:41:22;;;;;;;1.75;1.13;;;;;;;20.53;89.12;99269.91;5075413;28;20064;-67
2023/09/19 08:43:51;;;;;;;0.60;0.60;;;;;;;20.59;89.16;99279.13;5053690;28;20049;-66
2023/09/19 08:46:26;;;;;;;0.45;0.45;;;;;;;20.62;89.27;99279.00;5053905;28;20583;-66
2023/09/19 08:49:05;;;;;;;0.40;0.40;;;;;;;20.62;89.18;99284.19;5053572;28;20037;-66
2023/09/19 08:51:45;;;;;;;0.40;0.40;;;;;;;20.62;89.17;99295.41;5057747;28;20114;-66
2023/09/19 08:54:23;;;;;;;2.75;1.70;;;;;;;20.64;88.78;99290.97;5058829;28;20045;-66
2023/09/19 08:56:54;;;;;;;0.40;0.40;;;;;;;20.72;88.81;99295.81;5072356;28;20040;-66
2023/09/19 08:59:26;;;;;;;0.80;0.65;;;;;;;20.74;88.66;99293.97;5073520;28;20047;-65
2023/09/19 09:01:57;;;;;;;0.50;0.50;;;;;;;20.77;88.81;99283.47;5072783;28;20051;-66
2023/09/19 09:04:28;;;;;;;2.85;0.70;;;;;;;20.84;88.66;99289.19;5073445;28;20044;-66
2023/09/19 09:06:58;;;;;;;0.40;0.40;;;;;;;20.91;88.71;99290.56;5073469;28;20080;-66
2023/09/19 09:09:29;;;;;;;0.50;0.50;;;;;;;20.98;88.53;99295.38;5073238;28;20047;-65
2023/09/19 09:11:59;;;;;;;0.60;0.60;;;;;;;21.03;88.51;99302.94;5072891;28;20465;-65
2023/09/19 09:14:27;;;;;;;0.50;0.50;;;;;;;21.03;88.37;99292.56;5073017;28;20070;-66
2023/09/19 09:16:59;;;;;;;0.50;0.50;;;;;;;21.04;88.08;99302.84;5073425;28;20044;-66
2023/09/19 09:19:31;;;;;;;1.58;0.98;;;;;;;21.12;87.64;99305.09;5073377;28;20049;-65
2023/09/19 09:22:08;;;;;;;0.40;0.40;;;;;;;21.17;87.00;99297.94;5073846;28;20051;-66
2023/09/19 09:24:39;;;;;;;0.68;0.68;;;;;;;21.31;86.74;99293.72;5077449;28;20049;-65
2023/09/19 09:27:10;;;;;;;0.40;0.40;;;;;;;21.35;86.26;99305.63;5077531;28;20044;-66
2023/09/19 09:29:49;;;;;;;2.90;1.67;;;;;;;21.49;86.16;99288.53;5074980;28;20542;-66
2023/09/19 09:32:23;;;;;;;5.50;3.15;;;;;;;21.48;85.59;99292.03;5075644;28;20048;-66
2023/09/19 09:34:55;;;;;;;3.00;2.38;;;;;;;21.41;85.13;99306.22;5074551;28;20036;-68
2023/09/19 09:37:31;;;;;;;0.50;0.50;;;;;;;21.30;84.68;99305.03;5076835;28;20051;-65
2023/09/19 09:40:19;;;;;;;0.50;0.50;;;;;;;21.30;84.28;99310.25;5077019;28;20044;-65
2023/09/19 09:42:49;;;;;;;0.40;0.40;;;;;;;21.26;84.18;99306.09;5077685;28;20131;-65
2023/09/19 09:45:28;;;;;;;0.50;0.50;;;;;;;21.25;83.98;99309.63;5078510;28;20045;-65
2023/09/19 09:47:56;;;;;;;0.35;0.35;;;;;;;21.26;84.13;99313.88;5077169;28;20048;-65
2023/09/19 09:50:38;;;;;;;0.43;0.43;;;;;;;21.27;84.21;99312.97;5076481;28;20037;-66
2023/09/19 09:53:25;;;;;;;0.47;0.47;;;;;;;21.30;84.28;99317.19;5077150;28;20044;-65
2023/09/19 09:56:03;;;;;;;0.30;0.30;;;;;;;21.28;83.91;99319.03;5076958;28;20044;-65
2023/09/19 09:58:32;;;;;;;0.30;0.30;;;;;;;21.30;83.13;99323.22;5077414;28;20078;-65
2023/09/19 10:01:10;;;;;;;0.68;0.68;;;;;;;21.34;82.70;99322.13;5075849;28;20040;-65
2023/09/19 10:03:43;;;;;;;0.80;0.70;;;;;;;21.46;81.95;99325.03;5076678;28;20041;-65
2023/09/19 10:09:10;;;;;;;5.30;3.63;;;;;;;21.66;81.81;99317.06;5070183;28;20048;-64
2023/09/19 10:11:45;;;;;;;0.80;0.70;;;;;;;21.91;81.35;99327.88;5074090;28;20485;-65
2023/09/19 10:14:17;;;;;;;0.57;0.57;;;;;;;22.12;81.10;99326.78;5075681;28;20535;-65
2023/09/19 10:16:48;;;;;;;0.40;0.40;;;;;;;22.36;80.65;99335.81;5076432;28;20098;-64
2023/09/19 10:19:24;;;;;;;0.50;0.50;;;;;;;22.44;79.63;99328.47;5079673;28;20476;-64
2023/09/19 10:21:58;;;;;;;0.40;0.40;;;;;;;22.31;78.97;99337.88;5096703;28;20483;-64
2023/09/19 10:24:31;;;;;;;0.38;0.38;;;;;;;22.32;78.43;99333.47;5083274;28;20513;-65
2023/09/19 10:27:03;;;;;;;0.45;0.43;;;;;;;22.42;78.31;99335.50;5075561;28;20044;-65
2023/09/19 10:29:36;;;;;;;0.68;0.68;;;;;;;22.46;77.80;99325.75;5076143;28;20563;-65
2023/09/19 10:32:08;;;;;;;0.40;0.40;;;;;;;22.39;77.64;99340.88;5075772;28;20087;-66
2023/09/19 10:34:42;;;;;;;0.40;0.40;;;;;;;22.35;77.42;99331.56;5075493;28;20048;-65
2023/09/19 10:37:14;;;;;;;0.40;0.40;;;;;;;22.22;77.21;99333.13;5074634;28;20045;-65
2023/09/19 10:39:47;;;;;;;0.50;0.50;;;;;;;22.21;77.62;99330.63;5076070;28;20109;-65
2023/09/19 10:42:21;;;;;;;0.50;0.50;;;;;;;22.25;77.33;99327.78;5075230;28;20071;-66
2023/09/19 10:44:54;;;;;;;0.95;0.85;;;;;;;22.36;76.45;99330.63;5075424;28;20041;-65
2023/09/19 10:47:24;;;;;;;0.38;0.38;;;;;;;22.59;76.19;99332.84;5076153;28;20514;-65
2023/09/19 10:49:53;;;;;;;0.52;0.52;;;;;;;22.80;75.74;99329.97;5076082;28;20122;-65
2023/09/19 10:52:28;;;;;;;0.40;0.40;;;;;;;22.84;75.19;99329.75;5075989;28;20446;-65
2023/09/19 10:55:01;;;;;;;0.50;0.50;;;;;;;22.77;74.69;99330.97;5078495;28;20037;-64
2023/09/19 10:57:31;;;;;;;0.50;0.50;;;;;;;22.75;74.72;99324.22;5075720;28;20102;-65
2023/09/19 11:03:14;;;;;;;0.32;0.32;;;;;;;22.61;74.73;99336.22;5075626;28;20041;-65
2023/09/19 11:05:44;;;;;;;0.55;0.55;;;;;;;22.48;74.93;99335.16;5059143;28;20068;-65
2023/09/19 11:08:15;;;;;;;5.93;4.85;;;;;;;22.46;75.13;99336.16;5076975;28;20064;-63
2023/09/19 11:10:47;;;;;;;2.03;1.58;;;;;;;22.46;75.68;99336.16;5074967;28;20119;-64
2023/09/19 11:13:26;;;;;;;1.85;1.42;;;;;;;22.44;75.39;99333.66;5073601;28;20036;-65
2023/09/19 11:16:19;;;;;;;1.75;1.00;;;;;;;22.49;75.64;99329.06;5075664;28;20420;-65
2023/09/19 11:18:57;;;;;;;1.23;0.88;;;;;;;22.46;75.20;99337.00;5075519;28;20044;-65
2023/09/19 11:21:42;;;;;;;0.40;0.40;;;;;;;22.40;74.84;99332.16;5075504;28;20041;-65
2023/09/19 11:24:36;;;;;;;0.47;0.47;;;;;;;22.41;74.52;99333.81;5075587;28;20044;-64
2023/09/19 11:27:17;;;;;;;0.68;0.63;;;;;;;22.44;74.35;99325.84;5075028;28;20069;-64
2023/09/19 11:29:47;;;;;;;0.40;0.40;;;;;;;22.48;74.64;99334.34;5075367;28;20395;-64
2023/09/19 11:32:17;;;;;;;0.40;0.40;;;;;;;22.61;75.04;99341.41;5078135;28;20044;-64
2023/09/19 11:34:51;;;;;;;2.72;0.70;;;;;;;22.66;75.10;99339.41;5069222;28;20051;-65
2023/09/19 11:37:41;;;;;;;0.73;0.63;;;;;;;22.59;74.78;99327.63;5075209;28;20527;-64
2023/09/19 11:40:15;;;;;;;0.40;0.40;;;;;;;22.44;74.44;99323.25;5074680;28;20500;-64
2023/09/19 11:42:49;;;;;;;0.60;0.60;;;;;;;22.47;74.53;99323.09;5074299;28;20037;-65
2023/09/19 11:45:43;;;;;;;1.38;0.93;;;;;;;22.53;74.39;99322.75;5074298;28;20056;-64
2023/09/19 11:48:15;;;;;;;1.63;1.23;;;;;;;22.62;74.10;99331.84;5074890;28;20131;-66
2023/09/19 11:50:44;;;;;;;0.40;0.40;;;;;;;22.73;73.92;99331.25;5074234;28;20052;-64
2023/09/19 11:53:13;;;;;;;0.60;0.60;;;;;;;22.81;73.56;99342.06;5074534;28;20442;-67
2023/09/19 11:55:43;;;;;;;0.50;0.50;;;;;;;22.82;73.06;99333.34;5074519;28;20404;-66
2023/09/19 11:58:18;;;;;;;0.60;0.60;;;;;;;22.87;73.13;99342.56;5074484;28;20051;-65
2023/09/19 12:00:55;;;;;;;0.30;0.30;;;;;;;22.88;73.38;99346.00;5073579;28;20041;-63